Time;durP1;ratioP1;P1;durP2;ratioP2;P2;SDS_P1;SDS_P2;PMS_P1;PMS_P2;Temp;Humidity;BMP_temperature;BMP_pressure;BME280_temperature;BME280_humidity;BME280_pressure;Samples;Min_cycle;Max_cycle;Signal;HPM_P1;HPM_P2
2022/12/28 00:01:15;;;;;;;3.17;0.77;;;10.40;99.90;;;;;;5057499;28;20067;-69
2022/12/28 00:03:41;;;;;;;4.22;0.80;;;10.30;99.90;;;;;;5057693;28;20104;-69
2022/12/28 00:06:08;;;;;;;2.85;0.85;;;10.40;99.90;;;;;;5057458;28;20028;-69
2022/12/28 00:08:33;;;;;;;8.15;1.00;;;10.40;99.90;;;;;;5057561;28;20021;-68
2022/12/28 00:11:16;;;;;;;4.22;0.93;;;10.40;99.90;;;;;;5056265;28;20056;-68
2022/12/28 00:13:42;;;;;;;4.72;1.10;;;10.40;99.90;;;;;;5057187;28;20029;-69
2022/12/28 00:16:12;;;;;;;2.15;0.85;;;10.40;99.90;;;;;;5057440;28;20040;-69
2022/12/28 00:18:37;;;;;;;5.10;1.20;;;10.40;99.90;;;;;;5056982;28;20424;-68
2022/12/28 00:21:03;;;;;;;5.65;1.17;;;10.40;99.90;;;;;;5057438;28;20100;-69
2022/12/28 00:23:30;;;;;;;3.78;0.82;;;10.50;99.90;;;;;;5039275;28;20072;-69
2022/12/28 00:26:04;;;;;;;4.43;0.90;;;10.40;99.90;;;;;;5057418;28;20067;-69
2022/12/28 00:28:29;;;;;;;4.70;1.02;;;10.40;99.90;;;;;;5058376;28;20043;-69
2022/12/28 00:30:56;;;;;;;4.03;1.38;;;10.40;99.90;;;;;;5057263;28;20024;-69
2022/12/28 00:33:22;;;;;;;3.15;0.88;;;10.40;99.90;;;;;;5057012;28;20397;-69
2022/12/28 00:36:00;;;;;;;7.00;1.10;;;10.40;99.90;;;;;;5057348;28;20025;-69
2022/12/28 00:38:27;;;;;;;3.08;1.00;;;10.40;99.90;;;;;;5039050;28;20025;-69
2022/12/28 00:40:53;;;;;;;2.03;0.88;;;10.40;99.90;;;;;;5057286;28;20029;-69
2022/12/28 00:43:18;;;;;;;5.90;0.90;;;10.40;99.90;;;;;;5056754;28;20036;-69
2022/12/28 00:45:46;;;;;;;2.45;0.70;;;10.40;99.90;;;;;;5057231;28;20071;-69
2022/12/28 00:48:11;;;;;;;3.67;0.85;;;10.40;99.90;;;;;;5056913;28;20018;-69
2022/12/28 00:50:37;;;;;;;3.58;1.23;;;10.40;99.90;;;;;;5057150;28;20481;-69
2022/12/28 00:53:02;;;;;;;6.72;1.00;;;10.40;99.90;;;;;;5056972;28;20100;-69
2022/12/28 00:55:28;;;;;;;4.47;0.80;;;10.50;99.90;;;;;;5039150;28;20036;-69
2022/12/28 00:57:57;;;;;;;3.13;0.80;;;10.50;99.90;;;;;;5056895;28;20432;-69
2022/12/28 01:00:22;;;;;;;6.05;0.95;;;10.50;99.90;;;;;;5038834;28;20025;-69
2022/12/28 01:02:48;;;;;;;4.32;1.00;;;10.50;99.90;;;;;;5056749;28;20025;-68
2022/12/28 01:05:13;;;;;;;3.72;0.90;;;10.50;99.90;;;;;;5057129;28;20469;-69
2022/12/28 01:07:39;;;;;;;3.25;0.65;;;10.50;99.90;;;;;;5056781;28;20021;-69
2022/12/28 01:10:05;;;;;;;1.98;0.60;;;10.50;99.90;;;;;;5038850;28;20040;-69
2022/12/28 01:12:30;;;;;;;4.70;0.95;;;10.50;99.90;;;;;;5056697;28;20118;-68
2022/12/28 01:14:56;;;;;;;3.90;0.95;;;10.50;99.90;;;;;;5056578;28;20037;-68
2022/12/28 01:17:22;;;;;;;4.43;0.90;;;10.50;99.90;;;;;;5056556;28;20370;-69
2022/12/28 01:19:47;;;;;;;4.15;1.00;;;10.50;99.90;;;;;;5056861;28;20104;-68
2022/12/28 01:22:13;;;;;;;3.28;0.68;;;10.50;99.90;;;;;;5057910;28;20079;-68
2022/12/28 01:24:39;;;;;;;4.32;0.88;;;10.50;99.90;;;;;;5042548;28;20455;-69
2022/12/28 01:27:04;;;;;;;4.90;0.90;;;10.60;99.90;;;;;;5061798;28;20025;-68
2022/12/28 01:29:31;;;;;;;6.03;0.98;;;10.50;99.90;;;;;;5060552;28;20456;-68
2022/12/28 01:31:57;;;;;;;3.67;0.77;;;10.50;99.90;;;;;;5060429;28;20063;-68
2022/12/28 01:34:22;;;;;;;3.80;0.90;;;10.50;99.90;;;;;;5060442;28;20033;-69
2022/12/28 01:36:48;;;;;;;6.13;1.00;;;10.50;99.90;;;;;;5060042;28;20029;-69
2022/12/28 01:39:13;;;;;;;2.72;0.70;;;10.50;99.90;;;;;;5060371;28;20103;-69
2022/12/28 01:41:41;;;;;;;4.50;0.80;;;10.50;99.90;;;;;;5059812;28;20021;-69
2022/12/28 01:44:07;;;;;;;3.22;0.77;;;10.50;99.90;;;;;;5060075;28;20067;-69
2022/12/28 01:46:46;;;;;;;3.05;0.90;;;10.50;99.90;;;;;;5066138;28;20024;-69
2022/12/28 01:49:35;;;;;;;4.15;0.60;;;10.50;99.90;;;;;;5075802;28;20481;-68
2022/12/28 01:52:28;;;;;;;4.03;0.82;;;10.60;99.90;;;;;;5060259;28;20009;-69
2022/12/28 01:55:06;;;;;;;2.67;0.53;;;10.60;99.90;;;;;;5060334;28;20028;-69
2022/12/28 01:57:38;;;;;;;3.55;0.82;;;10.60;99.90;;;;;;5041902;28;20032;-68
2022/12/28 02:00:09;;;;;;;2.50;0.50;;;10.60;99.90;;;;;;5041818;28;20029;-69
2022/12/28 02:02:35;;;;;;;5.13;0.75;;;10.60;99.90;;;;;;5059685;28;20025;-69
2022/12/28 02:05:01;;;;;;;4.90;0.70;;;10.60;99.90;;;;;;5059828;28;20604;-69
2022/12/28 02:07:57;;;;;;;1.60;0.50;;;10.60;99.90;;;;;;5059759;28;20400;-69
2022/12/28 02:10:24;;;;;;;4.38;0.90;;;10.60;99.90;;;;;;5057871;28;20041;-69
2022/12/28 02:12:50;;;;;;;3.88;0.65;;;10.60;99.90;;;;;;5059670;28;20025;-68
2022/12/28 02:15:16;;;;;;;2.90;0.70;;;10.60;99.90;;;;;;5059332;28;20048;-69
2022/12/28 02:17:41;;;;;;;3.45;0.85;;;10.60;99.90;;;;;;5041559;28;20033;-68
2022/12/28 02:20:08;;;;;;;5.60;0.70;;;10.60;99.90;;;;;;5059459;28;20029;-69
2022/12/28 02:22:40;;;;;;;4.80;1.10;;;10.60;99.90;;;;;;5059468;28;20056;-69
2022/12/28 02:25:35;;;;;;;7.97;0.93;;;10.60;99.90;;;;;;5041381;28;20021;-69
2022/12/28 02:28:38;;;;;;;4.68;0.60;;;10.60;99.90;;;;;;5061321;28;20389;-69
2022/12/28 02:31:11;;;;;;;2.90;0.80;;;10.60;99.90;;;;;;5059376;28;20025;-69
2022/12/28 02:34:09;;;;;;;4.10;0.90;;;10.60;99.90;;;;;;5058009;28;20021;-69
2022/12/28 02:36:41;;;;;;;3.90;0.82;;;10.60;99.90;;;;;;5058925;28;20111;-69
2022/12/28 02:39:27;;;;;;;3.73;1.10;;;10.60;99.90;;;;;;5041225;28;20095;-69
2022/12/28 02:41:54;;;;;;;2.75;0.77;;;10.60;99.90;;;;;;5041111;28;20028;-69
2022/12/28 02:50:07;;;;;;;5.50;1.00;;;10.60;99.90;;;;;;5058868;28;20562;-69
2022/12/28 02:52:42;;;;;;;2.58;0.88;;;10.60;99.90;;;;;;5041004;28;20031;-69
2022/12/28 02:58:23;;;;;;;3.58;0.70;;;10.60;99.90;;;;;;5058423;28;20401;-68
2022/12/28 03:01:22;;;;;;;4.68;0.90;;;10.60;99.90;;;;;;5058701;28;20028;-69
2022/12/28 03:04:02;;;;;;;7.00;0.70;;;10.60;99.90;;;;;;5058527;28;20044;-69
2022/12/28 03:09:50;;;;;;;5.72;0.90;;;10.60;99.90;;;;;;5058543;28;20094;-69
2022/12/28 03:12:22;;;;;;;4.80;0.98;;;10.60;99.90;;;;;;5012933;28;20045;-69
2022/12/28 03:15:02;;;;;;;6.53;0.83;;;10.60;99.90;;;;;;5058344;28;20025;-69
2022/12/28 03:31:36;;;;;;;3.85;1.00;;;10.60;99.90;;;;;;5058228;28;20071;-69
2022/12/28 03:34:08;;;;;;;3.15;0.98;;;10.60;99.90;;;;;;5058153;28;20021;-69
2022/12/28 03:36:46;;;;;;;8.07;1.00;;;10.70;99.90;;;;;;5058020;28;20039;-68
2022/12/28 03:39:14;;;;;;;3.47;0.68;;;10.70;99.90;;;;;;5058190;28;20087;-68
2022/12/28 03:45:00;;;;;;;5.68;0.80;;;10.70;99.90;;;;;;5057773;28;20401;-69
2022/12/28 03:47:28;;;;;;;5.10;0.85;;;10.70;99.90;;;;;;5057981;28;20028;-69
2022/12/28 03:49:54;;;;;;;5.07;1.10;;;10.70;99.90;;;;;;5057770;28;20035;-69
2022/12/28 03:52:20;;;;;;;3.63;0.75;;;10.70;99.90;;;;;;5039964;28;20057;-69
2022/12/28 03:54:46;;;;;;;3.97;0.60;;;10.70;99.90;;;;;;5039752;28;20112;-69
2022/12/28 03:57:11;;;;;;;5.05;0.80;;;10.70;99.90;;;;;;5039789;28;20072;-69
2022/12/28 03:59:37;;;;;;;5.45;0.90;;;10.70;99.90;;;;;;5039395;28;20036;-69
2022/12/28 04:02:03;;;;;;;5.05;0.90;;;10.70;99.90;;;;;;5057552;28;20032;-69
2022/12/28 04:04:28;;;;;;;6.35;1.00;;;10.70;99.90;;;;;;5057441;28;20025;-69
2022/12/28 04:06:54;;;;;;;4.13;0.70;;;10.70;99.90;;;;;;5057597;28;20063;-70
2022/12/28 04:09:21;;;;;;;7.10;0.98;;;10.70;99.90;;;;;;5057402;28;20021;-69
2022/12/28 04:11:46;;;;;;;3.60;0.73;;;10.70;99.90;;;;;;5057405;28;20128;-69
2022/12/28 04:14:12;;;;;;;5.85;0.93;;;10.70;99.90;;;;;;5057134;28;20053;-69
2022/12/28 04:16:38;;;;;;;3.60;0.80;;;10.70;99.90;;;;;;5057444;28;20031;-69
2022/12/28 04:19:04;;;;;;;6.00;0.90;;;10.70;99.90;;;;;;5057230;28;20029;-69
2022/12/28 04:21:30;;;;;;;5.15;0.75;;;10.70;99.90;;;;;;5057467;28;20147;-69
2022/12/28 04:23:55;;;;;;;5.97;0.90;;;10.70;99.90;;;;;;5039334;28;20044;-69
2022/12/28 04:26:21;;;;;;;4.43;1.00;;;10.70;99.90;;;;;;5057415;28;20025;-69
2022/12/28 04:28:47;;;;;;;7.35;1.00;;;10.70;99.90;;;;;;5040783;28;20436;-69
2022/12/28 04:31:13;;;;;;;2.30;0.70;;;10.70;99.90;;;;;;5057535;28;20032;-69
2022/12/28 04:33:39;;;;;;;4.65;0.98;;;10.70;99.90;;;;;;5057139;28;20025;-69
2022/12/28 04:36:05;;;;;;;5.32;0.85;;;10.70;99.90;;;;;;5057219;28;20025;-69
2022/12/28 04:38:31;;;;;;;4.43;0.98;;;10.70;99.90;;;;;;5057034;28;20028;-69
2022/12/28 04:40:57;;;;;;;6.07;0.90;;;10.70;99.90;;;;;;5057266;28;20033;-69
2022/12/28 04:43:23;;;;;;;4.45;0.95;;;10.70;99.90;;;;;;5056801;28;20022;-68
2022/12/28 04:46:00;;;;;;;5.55;1.05;;;10.70;99.90;;;;;;5057272;28;20032;-68
2022/12/28 04:48:26;;;;;;;6.90;1.00;;;10.70;99.90;;;;;;5057047;28;20021;-68
2022/12/28 04:50:53;;;;;;;4.63;1.20;;;10.70;99.90;;;;;;5057007;28;20040;-69
2022/12/28 04:53:18;;;;;;;5.18;1.05;;;10.70;99.90;;;;;;5057134;28;20045;-68
2022/12/28 04:55:44;;;;;;;5.18;0.82;;;10.70;99.90;;;;;;5038945;28;20040;-69
2022/12/28 04:58:10;;;;;;;3.58;0.80;;;10.70;99.90;;;;;;5059698;28;20083;-68
2022/12/28 05:00:35;;;;;;;5.97;1.05;;;10.70;99.90;;;;;;5060951;28;20071;-68
2022/12/28 05:03:01;;;;;;;6.03;0.95;;;10.70;99.90;;;;;;5061081;28;20032;-69
2022/12/28 05:05:27;;;;;;;3.67;0.88;;;10.70;99.90;;;;;;5060948;28;20036;-68
2022/12/28 05:07:54;;;;;;;4.75;0.95;;;10.70;99.90;;;;;;5061040;28;20025;-69
2022/12/28 05:10:20;;;;;;;3.35;0.80;;;10.80;99.90;;;;;;5060716;28;20118;-68
2022/12/28 05:12:46;;;;;;;4.80;0.77;;;10.80;99.90;;;;;;5060923;28;20025;-69
2022/12/28 05:15:12;;;;;;;4.95;0.95;;;10.80;99.90;;;;;;5060576;28;20441;-69
2022/12/28 05:17:37;;;;;;;5.05;0.95;;;10.80;99.90;;;;;;5042711;28;20025;-68
2022/12/28 05:20:04;;;;;;;6.88;1.02;;;10.80;99.90;;;;;;5060653;28;20063;-69
2022/12/28 05:22:30;;;;;;;6.90;1.08;;;10.80;99.90;;;;;;5060834;28;20033;-68
2022/12/28 05:24:56;;;;;;;3.70;0.80;;;10.80;99.90;;;;;;5042629;28;20108;-69
2022/12/28 05:27:21;;;;;;;4.53;0.90;;;10.80;99.90;;;;;;5061626;28;20072;-68
2022/12/28 05:29:47;;;;;;;7.82;1.10;;;10.80;99.90;;;;;;5060250;28;20056;-68
2022/12/28 05:32:13;;;;;;;8.90;1.00;;;10.80;99.90;;;;;;5060501;28;20052;-68
2022/12/28 05:34:38;;;;;;;5.00;0.73;;;10.80;99.90;;;;;;5060485;28;20031;-68
2022/12/28 05:37:04;;;;;;;5.68;1.17;;;10.80;99.90;;;;;;5060137;28;20036;-69
2022/12/28 05:39:30;;;;;;;3.80;0.90;;;10.80;99.90;;;;;;5060340;28;20021;-68
2022/12/28 05:41:59;;;;;;;2.75;0.70;;;10.80;99.90;;;;;;5060391;28;20025;-69
2022/12/28 05:44:25;;;;;;;1.80;0.50;;;10.80;99.90;;;;;;5060042;28;20021;-68
2022/12/28 05:46:51;;;;;;;5.75;1.02;;;10.80;99.90;;;;;;5060211;28;20108;-69
2022/12/28 05:49:17;;;;;;;5.05;0.70;;;10.80;99.90;;;;;;5060192;28;20053;-69
2022/12/28 05:51:43;;;;;;;5.72;0.70;;;10.90;99.90;;;;;;5060236;28;20052;-69
2022/12/28 05:54:08;;;;;;;4.75;1.00;;;10.80;99.90;;;;;;5042077;28;20071;-69
2022/12/28 05:56:34;;;;;;;4.68;1.10;;;10.80;99.90;;;;;;5060101;28;20059;-69
2022/12/28 05:59:02;;;;;;;3.53;0.88;;;10.90;99.90;;;;;;5059761;28;20108;-69
2022/12/28 06:01:31;;;;;;;5.15;0.75;;;10.90;99.90;;;;;;5059567;28;20545;-68
2022/12/28 06:04:02;;;;;;;4.63;0.80;;;10.80;99.90;;;;;;5059941;28;20013;-69
2022/12/28 06:06:29;;;;;;;1.58;0.60;;;10.80;99.90;;;;;;5059992;28;20112;-69
2022/12/28 06:08:55;;;;;;;3.47;0.73;;;10.90;99.90;;;;;;5059784;28;20056;-68
2022/12/28 06:11:23;;;;;;;6.78;1.15;;;10.80;99.90;;;;;;5059626;28;20389;-68
2022/12/28 06:13:49;;;;;;;3.78;0.80;;;10.80;99.90;;;;;;5041541;28;20056;-68
2022/12/28 06:16:21;;;;;;;4.50;0.75;;;10.80;99.90;;;;;;5059830;28;20082;-69
2022/12/28 06:18:47;;;;;;;4.22;0.90;;;10.80;99.90;;;;;;5059471;28;20082;-68
2022/12/28 06:21:18;;;;;;;3.72;0.85;;;10.80;99.90;;;;;;5059709;28;20053;-69
2022/12/28 06:23:45;;;;;;;3.78;0.73;;;10.80;99.90;;;;;;5059403;28;20051;-69
2022/12/28 06:26:13;;;;;;;6.13;1.02;;;10.80;99.90;;;;;;5059607;28;20021;-69
2022/12/28 06:28:40;;;;;;;4.47;0.70;;;10.80;99.90;;;;;;5060826;28;20078;-69
2022/12/28 06:31:12;;;;;;;5.93;0.80;;;10.80;99.90;;;;;;5059336;28;20079;-69
2022/12/28 06:33:37;;;;;;;5.55;1.10;;;10.80;99.90;;;;;;5059082;28;20025;-68
2022/12/28 06:36:04;;;;;;;4.18;0.80;;;10.80;99.90;;;;;;5059180;28;20035;-69
2022/12/28 06:38:31;;;;;;;3.67;0.70;;;10.80;99.90;;;;;;5058995;28;20063;-68
2022/12/28 06:41:05;;;;;;;3.92;0.98;;;10.80;99.90;;;;;;5041339;28;20029;-69
2022/12/28 06:43:35;;;;;;;4.78;0.90;;;10.80;99.90;;;;;;5058507;28;20021;-69
2022/12/28 06:46:01;;;;;;;2.85;0.93;;;10.80;99.90;;;;;;5041422;28;20017;-69
2022/12/28 06:48:29;;;;;;;5.07;0.90;;;10.80;99.90;;;;;;5058970;28;20025;-69
2022/12/28 06:51:06;;;;;;;5.65;1.10;;;10.80;99.90;;;;;;5058944;28;20025;-69
2022/12/28 06:53:34;;;;;;;3.58;1.00;;;10.80;99.90;;;;;;5059114;28;20569;-69
2022/12/28 06:56:06;;;;;;;6.88;0.98;;;10.80;99.90;;;;;;5058760;28;20063;-69
2022/12/28 06:58:32;;;;;;;3.53;0.80;;;10.80;99.90;;;;;;5058691;28;20035;-69
2022/12/28 07:01:08;;;;;;;5.20;1.10;;;10.80;99.90;;;;;;5058603;28;20047;-69
2022/12/28 07:03:34;;;;;;;4.30;0.80;;;10.80;99.90;;;;;;5058626;28;20017;-69
2022/12/28 07:06:01;;;;;;;2.58;0.70;;;10.80;99.90;;;;;;5058526;28;20036;-69
2022/12/28 07:08:27;;;;;;;5.53;0.95;;;10.80;99.90;;;;;;5058710;28;20105;-68
2022/12/28 07:10:53;;;;;;;3.53;1.00;;;10.80;99.90;;;;;;5040532;28;20175;-69
2022/12/28 07:13:18;;;;;;;3.47;0.75;;;10.80;99.90;;;;;;5040450;28;20059;-69
2022/12/28 07:15:44;;;;;;;4.03;0.80;;;10.80;99.90;;;;;;5058589;28;20036;-69
2022/12/28 07:18:10;;;;;;;5.00;0.95;;;10.80;99.90;;;;;;5058212;28;20017;-69
2022/12/28 07:20:35;;;;;;;3.55;0.80;;;10.80;99.90;;;;;;5057900;28;20503;-69
2022/12/28 07:23:01;;;;;;;3.25;0.90;;;10.80;99.90;;;;;;5040421;28;20553;-69
2022/12/28 07:25:27;;;;;;;6.45;0.80;;;10.80;99.90;;;;;;5058254;28;20086;-69
2022/12/28 07:27:52;;;;;;;4.20;1.02;;;10.80;99.90;;;;;;5059766;28;20029;-68
2022/12/28 07:30:18;;;;;;;5.65;0.70;;;10.80;99.90;;;;;;5058182;28;20568;-69
2022/12/28 07:32:44;;;;;;;5.15;0.90;;;10.80;99.90;;;;;;5058152;28;20110;-69
2022/12/28 07:35:09;;;;;;;3.80;0.88;;;10.80;99.90;;;;;;5040187;28;20477;-68
2022/12/28 07:37:35;;;;;;;3.85;0.70;;;10.80;99.90;;;;;;5058088;28;20082;-69
2022/12/28 07:40:01;;;;;;;5.30;0.75;;;10.70;99.90;;;;;;5040089;28;20033;-69
2022/12/28 07:42:29;;;;;;;4.85;0.93;;;10.70;99.90;;;;;;5058251;28;20053;-69
2022/12/28 07:44:55;;;;;;;4.68;0.80;;;10.70;99.90;;;;;;5057725;28;20366;-69
2022/12/28 07:47:20;;;;;;;5.82;0.88;;;10.70;99.90;;;;;;5057880;28;20074;-69
2022/12/28 07:49:46;;;;;;;4.68;0.85;;;10.70;99.90;;;;;;5057812;28;20390;-69
2022/12/28 07:52:12;;;;;;;3.58;0.85;;;10.70;99.90;;;;;;5057851;28;20504;-69
2022/12/28 07:54:37;;;;;;;5.70;0.85;;;10.70;99.90;;;;;;5057714;28;20033;-69
2022/12/28 07:57:03;;;;;;;7.57;1.15;;;10.70;99.90;;;;;;5057772;28;20025;-69
2022/12/28 07:59:29;;;;;;;4.57;0.88;;;10.80;99.90;;;;;;5057373;28;20028;-69
2022/12/28 08:01:54;;;;;;;2.63;0.70;;;10.70;99.90;;;;;;5057681;28;20088;-69
2022/12/28 08:04:20;;;;;;;5.85;0.68;;;10.80;99.90;;;;;;5057540;28;20025;-69
2022/12/28 08:06:45;;;;;;;2.53;0.80;;;10.70;99.90;;;;;;5057639;28;20028;-68
2022/12/28 08:09:13;;;;;;;4.55;0.95;;;10.70;99.90;;;;;;5057514;28;20025;-69
2022/12/28 08:11:41;;;;;;;2.92;0.82;;;10.80;99.90;;;;;;5057226;28;20053;-69
2022/12/28 08:14:08;;;;;;;4.53;0.68;;;10.80;99.90;;;;;;5057185;28;20032;-69
2022/12/28 08:16:38;;;;;;;5.57;0.80;;;10.80;99.90;;;;;;5057483;28;20036;-69
2022/12/28 08:19:04;;;;;;;3.88;0.60;;;10.80;99.90;;;;;;5057246;28;20500;-69
2022/12/28 08:21:36;;;;;;;6.18;0.93;;;10.80;99.90;;;;;;5057611;28;20041;-68
2022/12/28 08:24:03;;;;;;;3.93;0.93;;;10.80;99.90;;;;;;5039347;28;20071;-69
2022/12/28 08:26:35;;;;;;;3.80;0.90;;;10.80;99.90;;;;;;5058346;28;20025;-68
2022/12/28 08:29:03;;;;;;;4.25;0.85;;;10.90;99.90;;;;;;5057262;28;20056;-69
2022/12/28 08:31:32;;;;;;;2.83;0.60;;;10.90;99.90;;;;;;5056323;28;20032;-69
2022/12/28 08:34:00;;;;;;;4.13;0.93;;;10.90;99.90;;;;;;5057324;28;20020;-69
2022/12/28 08:36:26;;;;;;;4.70;0.80;;;10.90;99.90;;;;;;5056976;28;20032;-69
2022/12/28 08:38:52;;;;;;;3.25;0.60;;;10.90;99.90;;;;;;5057133;28;20025;-69
2022/12/28 08:41:23;;;;;;;4.82;0.70;;;10.90;99.90;;;;;;5039181;28;20021;-68
2022/12/28 08:43:50;;;;;;;2.53;0.68;;;10.90;99.90;;;;;;5038946;28;20043;-69
2022/12/28 08:46:27;;;;;;;3.90;0.85;;;11.00;99.90;;;;;;5057333;28;20090;-69
2022/12/28 08:48:55;;;;;;;2.83;0.70;;;11.00;99.90;;;;;;5039215;28;20029;-69
2022/12/28 08:51:24;;;;;;;2.10;1.00;;;11.00;99.90;;;;;;5057058;28;20028;-69
2022/12/28 08:53:50;;;;;;;2.85;0.75;;;11.10;99.90;;;;;;5057104;28;20501;-69
2022/12/28 08:56:21;;;;;;;5.90;0.85;;;11.10;99.90;;;;;;5057042;28;20036;-69
2022/12/28 08:58:48;;;;;;;3.70;0.90;;;11.10;99.90;;;;;;5038837;28;20029;-69
2022/12/28 09:01:17;;;;;;;5.32;0.93;;;11.10;99.90;;;;;;5056817;28;20025;-69
2022/12/28 09:03:44;;;;;;;3.70;1.00;;;11.10;99.90;;;;;;5056854;28;20025;-69
2022/12/28 09:06:15;;;;;;;5.47;1.10;;;11.20;99.90;;;;;;5056742;28;20032;-69
2022/12/28 09:08:41;;;;;;;3.70;0.85;;;11.20;99.90;;;;;;5038735;28;20051;-68
2022/12/28 09:11:10;;;;;;;4.88;1.05;;;11.20;99.90;;;;;;5056706;28;20095;-69
2022/12/28 09:13:36;;;;;;;5.22;1.48;;;11.20;99.90;;;;;;5056544;28;20100;-69
2022/12/28 09:16:05;;;;;;;7.28;0.98;;;11.20;99.90;;;;;;5057018;28;20025;-69
2022/12/28 09:18:31;;;;;;;6.97;1.63;;;11.30;99.90;;;;;;5056456;28;20464;-69
2022/12/28 09:21:07;;;;;;;8.57;1.13;;;11.30;99.90;;;;;;5061987;28;20033;-69
2022/12/28 09:23:33;;;;;;;3.53;1.42;;;11.30;99.90;;;;;;5059294;28;20393;-69
2022/12/28 09:26:10;;;;;;;5.72;1.40;;;11.40;99.90;;;;;;5062000;28;20032;-68
2022/12/28 09:28:36;;;;;;;5.65;1.52;;;11.40;99.90;;;;;;5058449;28;20025;-69
2022/12/28 09:31:07;;;;;;;4.63;1.30;;;11.40;99.90;;;;;;5056712;28;20025;-69
2022/12/28 09:36:18;;;;;;;6.20;1.00;;;11.50;99.90;;;;;;5056715;28;20121;-69
2022/12/28 09:38:48;;;;;;;6.43;1.30;;;11.50;99.90;;;;;;5056591;28;20029;-69
2022/12/28 09:42:03;;;;;;;5.90;1.30;;;11.60;99.90;;;;;;5056763;28;20027;-69
2022/12/28 09:44:40;;;;;;;9.50;1.50;;;11.60;99.90;;;;;;4978380;28;20048;-69
2022/12/28 09:47:16;;;;;;;5.25;1.30;;;11.60;99.90;;;;;;4979310;28;20038;-69
2022/12/28 09:49:48;;;;;;;5.90;1.70;;;11.70;99.90;;;;;;5034632;28;20159;-69
2022/12/28 09:52:35;;;;;;;7.72;1.42;;;11.60;99.90;;;;;;5060228;28;20068;-68
2022/12/28 09:55:13;;;;;;;5.10;1.30;;;11.70;99.90;;;;;;5060224;28;20060;-69
2022/12/28 09:57:43;;;;;;;5.25;1.05;;;11.70;99.90;;;;;;5059897;28;20452;-69
2022/12/28 10:00:24;;;;;;;7.78;1.60;;;11.70;99.90;;;;;;5059943;28;20024;-69
2022/12/28 10:02:59;;;;;;;6.50;1.27;;;11.70;99.90;;;;;;5041786;28;20413;-69
2022/12/28 10:05:25;;;;;;;10.35;1.40;;;11.70;99.90;;;;;;5060085;28;20028;-69
2022/12/28 10:07:51;;;;;;;6.25;1.08;;;11.70;99.90;;;;;;5041998;28;20037;-69
2022/12/28 10:10:20;;;;;;;4.22;1.15;;;11.70;99.90;;;;;;5059694;28;20084;-69
2022/12/28 10:12:47;;;;;;;6.15;1.20;;;11.70;99.90;;;;;;5041593;28;20442;-69
2022/12/28 10:15:14;;;;;;;6.22;1.17;;;11.70;99.90;;;;;;5059729;28;20366;-69
2022/12/28 10:17:41;;;;;;;6.78;1.17;;;11.70;99.90;;;;;;5059572;28;20033;-69
2022/12/28 10:20:17;;;;;;;7.70;1.60;;;11.70;99.90;;;;;;5041685;28;20017;-69
2022/12/28 10:22:46;;;;;;;8.73;1.50;;;11.70;99.90;;;;;;5041617;28;20112;-68
2022/12/28 10:25:18;;;;;;;6.13;1.85;;;11.70;99.90;;;;;;5059345;28;20025;-69
2022/12/28 10:27:43;;;;;;;5.82;1.52;;;11.70;99.90;;;;;;5042832;28;20653;-69
2022/12/28 10:30:18;;;;;;;8.95;1.65;;;11.70;99.90;;;;;;5059291;28;20025;-69
2022/12/28 10:32:52;;;;;;;8.57;1.67;;;11.70;99.90;;;;;;5059533;28;20021;-69
2022/12/28 10:35:44;;;;;;;4.80;1.00;;;11.70;99.90;;;;;;5058953;28;20056;-68
2022/12/28 10:38:24;;;;;;;10.40;1.85;;;11.60;99.90;;;;;;5051512;28;20045;-69
2022/12/28 10:41:09;;;;;;;10.57;1.85;;;11.70;99.90;;;;;;5041310;28;20074;-69
2022/12/28 10:43:41;;;;;;;4.70;1.40;;;11.60;99.90;;;;;;5059028;28;20025;-69
2022/12/28 10:46:18;;;;;;;4.82;1.20;;;11.60;99.90;;;;;;5059070;28;20100;-69
2022/12/28 10:48:55;;;;;;;6.18;1.42;;;11.60;99.90;;;;;;5041146;28;20556;-69
2022/12/28 10:51:23;;;;;;;7.30;1.67;;;11.60;99.90;;;;;;5059008;28;20052;-69
2022/12/28 10:53:55;;;;;;;5.40;1.23;;;11.60;99.90;;;;;;5059009;28;20025;-69
2022/12/28 10:56:29;;;;;;;10.70;3.25;;;11.60;99.90;;;;;;5058108;28;20036;-68
2022/12/28 10:59:13;;;;;;;7.47;1.58;;;11.60;99.90;;;;;;5058718;28;20039;-69
2022/12/28 11:01:40;;;;;;;7.25;1.60;;;11.60;99.90;;;;;;5040642;28;20017;-69
2022/12/28 11:04:24;;;;;;;7.28;1.80;;;11.70;99.90;;;;;;5058652;28;20025;-69
2022/12/28 11:06:52;;;;;;;;;;;11.70;99.90;;;;;;5059180;28;20099;-69
2022/12/28 11:09:24;;;;;;;5.05;1.10;;;11.70;99.90;;;;;;5058528;28;19908;-69
2022/12/28 11:11:52;;;;;;;3.65;1.23;;;11.70;99.90;;;;;;5058480;28;20048;-69
2022/12/28 11:14:36;;;;;;;5.25;1.35;;;11.70;99.90;;;;;;5058299;28;20021;-69
2022/12/28 11:17:25;;;;;;;2.90;1.02;;;11.70;99.90;;;;;;5058228;28;20074;-69
2022/12/28 11:20:00;;;;;;;3.88;1.10;;;11.70;99.90;;;;;;5058519;28;20435;-69
2022/12/28 11:22:28;;;;;;;7.45;1.60;;;11.70;99.90;;;;;;5058318;28;20104;-69
2022/12/28 11:24:56;;;;;;;4.93;1.20;;;11.70;99.90;;;;;;5058346;28;20029;-68
2022/12/28 11:27:23;;;;;;;6.13;1.63;;;11.70;99.90;;;;;;5059716;28;20044;-68
2022/12/28 11:29:51;;;;;;;3.92;1.10;;;11.70;99.90;;;;;;5057994;28;20359;-68
2022/12/28 11:32:31;;;;;;;5.93;1.27;;;11.70;99.90;;;;;;5058260;28;20489;-68
2022/12/28 11:34:57;;;;;;;5.30;1.40;;;11.80;99.90;;;;;;5058195;28;20027;-69
2022/12/28 11:37:23;;;;;;;7.22;1.45;;;11.80;99.90;;;;;;5057926;28;20017;-69
2022/12/28 11:39:51;;;;;;;7.10;1.50;;;11.80;99.90;;;;;;5057978;28;20037;-68
2022/12/28 11:42:35;;;;;;;7.30;1.20;;;11.80;99.90;;;;;;5058255;28;20089;-69
2022/12/28 11:45:03;;;;;;;6.82;1.05;;;11.80;99.90;;;;;;5057663;28;20028;-68
2022/12/28 11:47:32;;;;;;;4.43;1.20;;;11.80;99.90;;;;;;5057754;28;20029;-69
2022/12/28 11:50:38;;;;;;;4.30;1.20;;;11.80;99.90;;;;;;5057774;28;20055;-68
2022/12/28 11:53:20;;;;;;;4.88;1.20;;;11.80;99.90;;;;;;5039831;28;20424;-69
2022/12/28 11:56:08;;;;;;;7.30;2.07;;;11.90;99.90;;;;;;5039768;28;20033;-69
2022/12/28 11:59:02;;;;;;;5.80;1.27;;;11.90;99.90;;;;;;5057485;28;20382;-69
2022/12/28 12:01:28;;;;;;;6.53;1.50;;;11.90;99.90;;;;;;5057547;28;20078;-69
2022/12/28 12:03:57;;;;;;;5.22;1.40;;;11.90;99.90;;;;;;5073000;28;20029;-69
2022/12/28 12:06:41;;;;;;;3.58;1.15;;;11.90;99.90;;;;;;5057639;28;20017;-69
2022/12/28 12:09:24;;;;;;;5.20;1.40;;;12.00;99.90;;;;;;5057523;28;20539;-69
2022/12/28 12:11:54;;;;;;;3.38;1.13;;;12.00;99.90;;;;;;5057365;28;20501;-69
2022/12/28 12:14:28;;;;;;;3.85;1.40;;;12.00;99.90;;;;;;5057040;28;20029;-69
2022/12/28 12:17:04;;;;;;;5.53;1.05;;;12.00;99.90;;;;;;5057330;28;20029;-69
2022/12/28 12:19:36;;;;;;;5.28;1.20;;;12.00;99.90;;;;;;5039483;28;20115;-69
2022/12/28 12:22:30;;;;;;;5.00;1.23;;;12.00;99.90;;;;;;5057512;28;20393;-68
2022/12/28 12:25:01;;;;;;;7.82;1.63;;;12.00;99.90;;;;;;5057109;28;20279;-69
2022/12/28 12:27:35;;;;;;;4.78;1.38;;;12.00;99.90;;;;;;5058807;28;20021;-69
2022/12/28 12:30:14;;;;;;;3.75;1.23;;;12.00;99.90;;;;;;5038215;28;20029;-69
2022/12/28 12:32:56;;;;;;;4.82;1.13;;;12.00;99.90;;;;;;5057259;28;20027;-69
2022/12/28 12:35:25;;;;;;;5.68;1.63;;;12.00;99.90;;;;;;5057006;28;20025;-69
2022/12/28 12:38:01;;;;;;;5.05;1.38;;;12.00;99.90;;;;;;5057360;28;20021;-69
2022/12/28 12:40:33;;;;;;;6.25;1.35;;;12.00;99.90;;;;;;5057368;28;20379;-70
2022/12/28 12:43:23;;;;;;;6.03;1.15;;;12.00;99.90;;;;;;5038945;28;20435;-69
2022/12/28 12:46:07;;;;;;;5.82;1.40;;;12.00;99.90;;;;;;5039237;28;20037;-69
2022/12/28 12:48:54;;;;;;;3.25;1.25;;;12.00;99.90;;;;;;5057099;28;20028;-68
2022/12/28 12:51:31;;;;;;;3.85;1.17;;;12.00;99.90;;;;;;5056989;28;20081;-68
2022/12/28 12:54:08;;;;;;;3.75;1.10;;;12.00;99.90;;;;;;5057083;28;20029;-68
2022/12/28 12:56:40;;;;;;;6.55;1.45;;;11.90;99.90;;;;;;5057049;28;20163;-68
2022/12/28 12:59:39;;;;;;;3.97;1.75;;;12.00;99.90;;;;;;5036876;28;20028;-68
2022/12/28 13:02:17;;;;;;;4.53;2.03;;;12.00;99.90;;;;;;5038092;28;20025;-69
2022/12/28 13:04:44;;;;;;;5.22;1.80;;;11.90;99.90;;;;;;5060621;28;20013;-68
2022/12/28 13:07:29;;;;;;;6.43;2.42;;;11.90;99.90;;;;;;5061515;28;20528;-68
2022/12/28 13:09:58;;;;;;;6.22;1.67;;;11.90;99.90;;;;;;5038454;28;20501;-69
2022/12/28 13:12:24;;;;;;;2.10;1.15;;;11.90;99.90;;;;;;5061870;28;20037;-69
2022/12/28 13:15:01;;;;;;;3.42;1.40;;;11.90;99.90;;;;;;5056697;28;20139;-69
2022/12/28 13:17:28;;;;;;;4.18;1.38;;;11.90;99.90;;;;;;5038626;28;20049;-69
2022/12/28 13:20:18;;;;;;;3.97;1.20;;;11.90;99.90;;;;;;5061751;28;20037;-68
2022/12/28 13:22:45;;;;;;;4.53;1.55;;;11.80;99.90;;;;;;5049913;28;20025;-69
2022/12/28 13:25:32;;;;;;;2.85;1.48;;;11.80;99.90;;;;;;5060434;28;20067;-69
2022/12/28 13:28:00;;;;;;;4.55;1.42;;;11.80;99.90;;;;;;5060181;28;20033;-69
2022/12/28 13:30:27;;;;;;;5.47;2.50;;;11.80;99.90;;;;;;5060399;28;20029;-69
2022/12/28 13:32:58;;;;;;;4.65;1.80;;;11.80;99.90;;;;;;5060480;28;20440;-69
2022/12/28 13:35:28;;;;;;;5.40;2.50;;;11.90;99.90;;;;;;5060402;28;20178;-69
2022/12/28 13:38:01;;;;;;;3.33;1.38;;;11.90;99.90;;;;;;5050049;28;20028;-69